sensor_id;sensor_type;location;lat;lon;timestamp;pressure;altitude;pressure_sealevel;temperature;humidity
85812;BME280;76886;52.146;20.718;2024-03-02T00:00:30;100260;;;7.4;76.9
85812;BME280;76886;52.146;20.718;2024-03-02T00:01:30;100260;;;7.2;77.5
85812;BME280;76886;52.146;20.718;2024-03-02T00:02:30;100270;;;7.2;77.6
85812;BME280;76886;52.146;20.718;2024-03-02T00:03:30;100260;;;7.1;77.8
85812;BME280;76886;52.146;20.718;2024-03-02T00:04:30;100260;;;7.3;77.3
85812;BME280;76886;52.146;20.718;2024-03-02T00:05:30;100260;;;7.6;76.1
85812;BME280;76886;52.146;20.718;2024-03-02T00:06:30;100260;;;7.6;76.1
85812;BME280;76886;52.146;20.718;2024-03-02T00:07:30;100270;;;7.4;76.6
85812;BME280;76886;52.146;20.718;2024-03-02T00:08:30;100260;;;7.2;77.5
85812;BME280;76886;52.146;20.718;2024-03-02T00:09:30;100260;;;7.1;77.6
85812;BME280;76886;52.146;20.718;2024-03-02T00:10:35;100260;;;6.9;78.2
85812;BME280;76886;52.146;20.718;2024-03-02T00:11:30;100250;;;6.9;79.3
85812;BME280;76886;52.146;20.718;2024-03-02T00:12:30;100250;;;6.9;78.9
85812;BME280;76886;52.146;20.718;2024-03-02T00:13:30;100260;;;7.0;78.6
85812;BME280;76886;52.146;20.718;2024-03-02T00:14:30;100260;;;7.0;78.4
85812;BME280;76886;52.146;20.718;2024-03-02T00:16:30;100250;;;6.9;78.8
85812;BME280;76886;52.146;20.718;2024-03-02T00:17:30;100260;;;6.9;78.6
85812;BME280;76886;52.146;20.718;2024-03-02T00:18:31;100250;;;6.9;79.3
85812;BME280;76886;52.146;20.718;2024-03-02T00:19:30;100250;;;6.8;79.0
85812;BME280;76886;52.146;20.718;2024-03-02T00:20:30;100260;;;6.8;79.0
85812;BME280;76886;52.146;20.718;2024-03-02T00:21:30;100260;;;6.9;79.0
85812;BME280;76886;52.146;20.718;2024-03-02T00:22:30;100250;;;6.9;79.1
85812;BME280;76886;52.146;20.718;2024-03-02T00:23:30;100250;;;7.1;78.5
85812;BME280;76886;52.146;20.718;2024-03-02T00:24:31;100260;;;7.0;78.6
85812;BME280;76886;52.146;20.718;2024-03-02T00:25:38;100250;;;7.1;78.3
85812;BME280;76886;52.146;20.718;2024-03-02T00:26:30;100260;;;7.1;78.4
85812;BME280;76886;52.146;20.718;2024-03-02T00:27:30;100250;;;7.2;77.8
85812;BME280;76886;52.146;20.718;2024-03-02T00:28:31;100260;;;7.2;78.2
85812;BME280;76886;52.146;20.718;2024-03-02T00:29:30;100250;;;7.3;77.6
85812;BME280;76886;52.146;20.718;2024-03-02T00:31:30;100250;;;7.2;77.9
85812;BME280;76886;52.146;20.718;2024-03-02T00:32:30;100250;;;7.3;77.2
85812;BME280;76886;52.146;20.718;2024-03-02T00:33:31;100250;;;7.4;76.5
85812;BME280;76886;52.146;20.718;2024-03-02T00:34:30;100260;;;7.4;76.6
85812;BME280;76886;52.146;20.718;2024-03-02T00:35:30;100260;;;7.3;77.1
85812;BME280;76886;52.146;20.718;2024-03-02T00:36:30;100260;;;7.3;77.0
85812;BME280;76886;52.146;20.718;2024-03-02T00:37:30;100260;;;7.0;78.1
85812;BME280;76886;52.146;20.718;2024-03-02T00:38:30;100260;;;7.0;78.5
85812;BME280;76886;52.146;20.718;2024-03-02T00:39:30;100260;;;6.9;78.8
85812;BME280;76886;52.146;20.718;2024-03-02T00:40:30;100260;;;6.8;79.5
85812;BME280;76886;52.146;20.718;2024-03-02T00:41:30;100260;;;6.8;79.4
85812;BME280;76886;52.146;20.718;2024-03-02T00:42:30;100260;;;7.1;78.3
85812;BME280;76886;52.146;20.718;2024-03-02T00:43:45;100260;;;7.2;77.8
85812;BME280;76886;52.146;20.718;2024-03-02T00:44:30;100260;;;7.2;77.6
85812;BME280;76886;52.146;20.718;2024-03-02T00:45:30;100260;;;7.2;77.6
85812;BME280;76886;52.146;20.718;2024-03-02T00:46:33;100260;;;7.0;78.3
85812;BME280;76886;52.146;20.718;2024-03-02T00:47:30;100260;;;6.9;78.6
85812;BME280;76886;52.146;20.718;2024-03-02T00:48:30;100260;;;7.2;77.5
85812;BME280;76886;52.146;20.718;2024-03-02T00:49:30;100260;;;7.2;77.2
85812;BME280;76886;52.146;20.718;2024-03-02T00:50:30;100260;;;7.2;77.9
85812;BME280;76886;52.146;20.718;2024-03-02T00:51:31;100260;;;7.3;76.8
85812;BME280;76886;52.146;20.718;2024-03-02T00:52:30;100250;;;7.3;77.2
85812;BME280;76886;52.146;20.718;2024-03-02T00:53:30;100250;;;7.2;77.4
85812;BME280;76886;52.146;20.718;2024-03-02T00:54:30;100250;;;7.3;76.7
85812;BME280;76886;52.146;20.718;2024-03-02T00:55:30;100260;;;7.2;77.4
85812;BME280;76886;52.146;20.718;2024-03-02T00:56:30;100260;;;7.4;76.8
85812;BME280;76886;52.146;20.718;2024-03-02T00:57:30;100260;;;7.3;77.0
85812;BME280;76886;52.146;20.718;2024-03-02T00:58:30;100260;;;7.1;77.6
85812;BME280;76886;52.146;20.718;2024-03-02T00:59:30;100250;;;7.0;77.8
85812;BME280;76886;52.146;20.718;2024-03-02T01:00:30;100250;;;7.1;77.5
85812;BME280;76886;52.146;20.718;2024-03-02T01:01:30;100250;;;7.1;77.6
85812;BME280;76886;52.146;20.718;2024-03-02T01:02:30;100240;;;6.8;78.6
85812;BME280;76886;52.146;20.718;2024-03-02T01:03:31;100240;;;6.9;78.7
85812;BME280;76886;52.146;20.718;2024-03-02T01:04:30;100240;;;6.8;78.7
85812;BME280;76886;52.146;20.718;2024-03-02T01:05:30;100240;;;6.6;79.4
85812;BME280;76886;52.146;20.718;2024-03-02T01:06:30;100240;;;6.8;79.1
85812;BME280;76886;52.146;20.718;2024-03-02T01:07:30;100240;;;6.7;79.3
85812;BME280;76886;52.146;20.718;2024-03-02T01:08:30;100240;;;6.6;79.8
85812;BME280;76886;52.146;20.718;2024-03-02T01:09:30;100250;;;6.5;80.5
85812;BME280;76886;52.146;20.718;2024-03-02T01:10:30;100250;;;6.8;79.2
85812;BME280;76886;52.146;20.718;2024-03-02T01:11:30;100240;;;6.6;79.4
85812;BME280;76886;52.146;20.718;2024-03-02T01:12:30;100250;;;6.5;80.1
85812;BME280;76886;52.146;20.718;2024-03-02T01:13:30;100250;;;6.7;79.4
85812;BME280;76886;52.146;20.718;2024-03-02T01:14:30;100250;;;6.7;79.3
85812;BME280;76886;52.146;20.718;2024-03-02T01:15:30;100240;;;6.6;79.8
85812;BME280;76886;52.146;20.718;2024-03-02T01:16:30;100250;;;6.7;79.4
85812;BME280;76886;52.146;20.718;2024-03-02T01:17:30;100250;;;6.7;79.7
85812;BME280;76886;52.146;20.718;2024-03-02T01:18:30;100250;;;6.6;79.6
85812;BME280;76886;52.146;20.718;2024-03-02T01:19:30;100250;;;6.8;79.3
85812;BME280;76886;52.146;20.718;2024-03-02T01:20:30;100250;;;6.9;78.7
85812;BME280;76886;52.146;20.718;2024-03-02T01:21:30;100250;;;6.9;78.9
85812;BME280;76886;52.146;20.718;2024-03-02T01:22:30;100250;;;6.9;78.4
85812;BME280;76886;52.146;20.718;2024-03-02T01:23:30;100250;;;7.0;78.0
85812;BME280;76886;52.146;20.718;2024-03-02T01:24:30;100250;;;6.9;78.3
85812;BME280;76886;52.146;20.718;2024-03-02T01:25:30;100250;;;6.8;78.5
85812;BME280;76886;52.146;20.718;2024-03-02T01:26:30;100250;;;6.7;79.2
85812;BME280;76886;52.146;20.718;2024-03-02T01:27:30;100250;;;6.8;79.1
85812;BME280;76886;52.146;20.718;2024-03-02T01:28:30;100240;;;6.7;79.3
85812;BME280;76886;52.146;20.718;2024-03-02T01:29:30;100240;;;6.7;79.6
85812;BME280;76886;52.146;20.718;2024-03-02T01:30:30;100240;;;6.9;79.0
85812;BME280;76886;52.146;20.718;2024-03-02T01:31:30;100240;;;7.0;78.2
85812;BME280;76886;52.146;20.718;2024-03-02T01:32:30;100240;;;7.0;78.1
85812;BME280;76886;52.146;20.718;2024-03-02T01:33:30;100240;;;6.9;78.5
85812;BME280;76886;52.146;20.718;2024-03-02T01:34:30;100230;;;6.9;78.5
85812;BME280;76886;52.146;20.718;2024-03-02T01:35:30;100230;;;6.8;78.8
85812;BME280;76886;52.146;20.718;2024-03-02T01:36:30;100230;;;6.7;79.0
85812;BME280;76886;52.146;20.718;2024-03-02T01:37:30;100240;;;6.7;79.5
85812;BME280;76886;52.146;20.718;2024-03-02T01:38:30;100230;;;6.6;79.6
85812;BME280;76886;52.146;20.718;2024-03-02T01:39:30;100230;;;6.8;79.0
85812;BME280;76886;52.146;20.718;2024-03-02T01:40:30;100230;;;6.6;79.5
85812;BME280;76886;52.146;20.718;2024-03-02T01:41:30;100230;;;6.7;79.5
85812;BME280;76886;52.146;20.718;2024-03-02T01:42:30;100230;;;6.5;80.0
85812;BME280;76886;52.146;20.718;2024-03-02T01:43:30;100230;;;6.5;79.9
85812;BME280;76886;52.146;20.718;2024-03-02T01:44:30;100220;;;6.7;79.5
85812;BME280;76886;52.146;20.718;2024-03-02T01:45:30;100220;;;6.6;79.5
85812;BME280;76886;52.146;20.718;2024-03-02T01:46:30;100220;;;6.6;79.8
85812;BME280;76886;52.146;20.718;2024-03-02T01:47:30;100220;;;6.7;79.5
85812;BME280;76886;52.146;20.718;2024-03-02T01:48:30;100230;;;6.9;78.6
85812;BME280;76886;52.146;20.718;2024-03-02T01:49:30;100230;;;6.9;78.2
85812;BME280;76886;52.146;20.718;2024-03-02T01:50:31;100220;;;7.1;77.6
85812;BME280;76886;52.146;20.718;2024-03-02T01:51:30;100220;;;7.0;78.0
85812;BME280;76886;52.146;20.718;2024-03-02T01:52:30;100220;;;7.1;77.8
85812;BME280;76886;52.146;20.718;2024-03-02T01:53:30;100220;;;7.1;77.4
85812;BME280;76886;52.146;20.718;2024-03-02T01:54:30;100220;;;6.9;78.3
85812;BME280;76886;52.146;20.718;2024-03-02T01:55:30;100220;;;7.2;77.3
85812;BME280;76886;52.146;20.718;2024-03-02T01:56:30;100220;;;7.3;76.7
85812;BME280;76886;52.146;20.718;2024-03-02T01:57:30;100210;;;7.0;77.8
85812;BME280;76886;52.146;20.718;2024-03-02T01:58:30;100210;;;6.8;78.5
85812;BME280;76886;52.146;20.718;2024-03-02T01:59:30;100210;;;6.6;79.4
85812;BME280;76886;52.146;20.718;2024-03-02T02:00:30;100210;;;6.6;79.6
85812;BME280;76886;52.146;20.718;2024-03-02T02:01:30;100220;;;6.7;79.2
85812;BME280;76886;52.146;20.718;2024-03-02T02:02:30;100220;;;6.9;79.1
85812;BME280;76886;52.146;20.718;2024-03-02T02:03:30;100220;;;6.7;79.5
85812;BME280;76886;52.146;20.718;2024-03-02T02:04:30;100220;;;6.9;79.1
85812;BME280;76886;52.146;20.718;2024-03-02T02:05:30;100220;;;6.9;78.4
85812;BME280;76886;52.146;20.718;2024-03-02T02:06:30;100220;;;7.0;78.3
85812;BME280;76886;52.146;20.718;2024-03-02T02:07:30;100220;;;7.0;78.4
85812;BME280;76886;52.146;20.718;2024-03-02T02:08:30;100220;;;6.9;78.8
85812;BME280;76886;52.146;20.718;2024-03-02T02:09:30;100220;;;6.8;78.9
85812;BME280;76886;52.146;20.718;2024-03-02T02:10:30;100220;;;6.6;79.7
85812;BME280;76886;52.146;20.718;2024-03-02T02:11:30;100220;;;6.5;80.2
85812;BME280;76886;52.146;20.718;2024-03-02T02:12:30;100220;;;6.5;80.4
85812;BME280;76886;52.146;20.718;2024-03-02T02:13:30;100220;;;6.9;79.1
85812;BME280;76886;52.146;20.718;2024-03-02T02:14:30;100220;;;7.1;78.0
85812;BME280;76886;52.146;20.718;2024-03-02T02:15:30;100220;;;7.2;77.8
85812;BME280;76886;52.146;20.718;2024-03-02T02:16:30;100220;;;6.9;78.6
85812;BME280;76886;52.146;20.718;2024-03-02T02:17:30;100220;;;6.9;79.0
85812;BME280;76886;52.146;20.718;2024-03-02T02:18:30;100220;;;6.9;78.8
85812;BME280;76886;52.146;20.718;2024-03-02T02:19:30;100220;;;6.8;79.1
85812;BME280;76886;52.146;20.718;2024-03-02T02:20:30;100220;;;7.0;78.9
85812;BME280;76886;52.146;20.718;2024-03-02T02:21:30;100220;;;6.8;79.5
85812;BME280;76886;52.146;20.718;2024-03-02T02:22:30;100220;;;7.1;78.5
85812;BME280;76886;52.146;20.718;2024-03-02T02:23:30;100220;;;7.2;77.6
85812;BME280;76886;52.146;20.718;2024-03-02T02:24:30;100220;;;7.2;78.0
85812;BME280;76886;52.146;20.718;2024-03-02T02:25:30;100220;;;6.9;78.5
85812;BME280;76886;52.146;20.718;2024-03-02T02:26:30;100210;;;6.7;79.4
85812;BME280;76886;52.146;20.718;2024-03-02T02:27:30;100210;;;6.5;80.4
85812;BME280;76886;52.146;20.718;2024-03-02T02:28:30;100210;;;6.6;80.2
85812;BME280;76886;52.146;20.718;2024-03-02T02:29:30;100210;;;6.5;80.8
85812;BME280;76886;52.146;20.718;2024-03-02T02:30:31;100210;;;6.5;80.7
85812;BME280;76886;52.146;20.718;2024-03-02T02:31:37;100210;;;6.6;80.1
85812;BME280;76886;52.146;20.718;2024-03-02T02:32:30;100210;;;6.6;80.3
85812;BME280;76886;52.146;20.718;2024-03-02T02:33:30;100210;;;6.6;80.2
85812;BME280;76886;52.146;20.718;2024-03-02T02:34:30;100200;;;6.5;80.3
85812;BME280;76886;52.146;20.718;2024-03-02T02:35:30;100200;;;6.9;79.2
85812;BME280;76886;52.146;20.718;2024-03-02T02:36:30;100200;;;7.2;78.0
85812;BME280;76886;52.146;20.718;2024-03-02T02:37:30;100200;;;7.0;78.4
85812;BME280;76886;52.146;20.718;2024-03-02T02:38:30;100200;;;7.2;77.7
85812;BME280;76886;52.146;20.718;2024-03-02T02:39:30;100200;;;7.1;78.0
85812;BME280;76886;52.146;20.718;2024-03-02T02:40:30;100200;;;7.1;77.7
85812;BME280;76886;52.146;20.718;2024-03-02T02:41:30;100200;;;7.1;78.0
85812;BME280;76886;52.146;20.718;2024-03-02T02:42:30;100200;;;6.8;79.3
85812;BME280;76886;52.146;20.718;2024-03-02T02:43:30;100200;;;6.7;79.6
85812;BME280;76886;52.146;20.718;2024-03-02T02:44:30;100200;;;6.8;79.3
85812;BME280;76886;52.146;20.718;2024-03-02T02:45:30;100190;;;6.9;78.5
85812;BME280;76886;52.146;20.718;2024-03-02T02:46:30;100190;;;7.0;78.6
85812;BME280;76886;52.146;20.718;2024-03-02T02:47:30;100200;;;7.3;77.3
85812;BME280;76886;52.146;20.718;2024-03-02T02:48:30;100200;;;7.3;77.0
85812;BME280;76886;52.146;20.718;2024-03-02T02:49:30;100200;;;7.1;78.0
85812;BME280;76886;52.146;20.718;2024-03-02T02:50:30;100200;;;6.9;78.7
85812;BME280;76886;52.146;20.718;2024-03-02T02:51:30;100190;;;6.9;78.7
85812;BME280;76886;52.146;20.718;2024-03-02T02:52:33;100200;;;6.9;79.1
85812;BME280;76886;52.146;20.718;2024-03-02T02:53:30;100190;;;6.8;79.0
85812;BME280;76886;52.146;20.718;2024-03-02T02:54:30;100190;;;6.9;79.1
85812;BME280;76886;52.146;20.718;2024-03-02T02:55:30;100190;;;7.0;78.4
85812;BME280;76886;52.146;20.718;2024-03-02T02:56:30;100190;;;7.0;78.5
85812;BME280;76886;52.146;20.718;2024-03-02T02:57:31;100190;;;7.0;78.5
85812;BME280;76886;52.146;20.718;2024-03-02T02:58:30;100190;;;7.0;78.5
85812;BME280;76886;52.146;20.718;2024-03-02T02:59:30;100190;;;7.0;78.3
85812;BME280;76886;52.146;20.718;2024-03-02T03:00:30;100190;;;6.8;79.2
85812;BME280;76886;52.146;20.718;2024-03-02T03:01:30;100190;;;6.8;79.4
85812;BME280;76886;52.146;20.718;2024-03-02T03:02:30;100190;;;7.0;78.8
85812;BME280;76886;52.146;20.718;2024-03-02T03:03:30;100190;;;7.0;78.4
85812;BME280;76886;52.146;20.718;2024-03-02T03:04:30;100190;;;7.0;78.6
85812;BME280;76886;52.146;20.718;2024-03-02T03:05:30;100180;;;6.9;78.9
85812;BME280;76886;52.146;20.718;2024-03-02T03:06:30;100190;;;7.0;79.2
85812;BME280;76886;52.146;20.718;2024-03-02T03:07:30;100190;;;7.1;78.4
85812;BME280;76886;52.146;20.718;2024-03-02T03:08:30;100190;;;7.3;77.4
85812;BME280;76886;52.146;20.718;2024-03-02T03:09:30;100180;;;7.1;77.9
85812;BME280;76886;52.146;20.718;2024-03-02T03:10:30;100190;;;7.0;78.2
85812;BME280;76886;52.146;20.718;2024-03-02T03:11:30;100180;;;6.8;79.1
85812;BME280;76886;52.146;20.718;2024-03-02T03:12:30;100190;;;6.8;79.4
85812;BME280;76886;52.146;20.718;2024-03-02T03:13:30;100190;;;6.7;80.0
85812;BME280;76886;52.146;20.718;2024-03-02T03:14:30;100180;;;6.8;79.8
85812;BME280;76886;52.146;20.718;2024-03-02T03:15:30;100180;;;7.2;78.0
85812;BME280;76886;52.146;20.718;2024-03-02T03:16:30;100180;;;7.2;78.0
85812;BME280;76886;52.146;20.718;2024-03-02T03:17:30;100190;;;7.1;78.2
85812;BME280;76886;52.146;20.718;2024-03-02T03:18:30;100180;;;7.0;78.6
85812;BME280;76886;52.146;20.718;2024-03-02T03:19:30;100190;;;7.2;78.2
85812;BME280;76886;52.146;20.718;2024-03-02T03:20:30;100190;;;7.2;77.6
85812;BME280;76886;52.146;20.718;2024-03-02T03:21:30;100190;;;7.3;77.3
85812;BME280;76886;52.146;20.718;2024-03-02T03:22:30;100190;;;7.4;77.0
85812;BME280;76886;52.146;20.718;2024-03-02T03:23:30;100190;;;7.4;76.8
85812;BME280;76886;52.146;20.718;2024-03-02T03:24:30;100180;;;7.5;76.5
85812;BME280;76886;52.146;20.718;2024-03-02T03:25:30;100190;;;7.5;76.5
85812;BME280;76886;52.146;20.718;2024-03-02T03:26:30;100190;;;7.3;76.7
85812;BME280;76886;52.146;20.718;2024-03-02T03:27:30;100190;;;7.5;76.4
85812;BME280;76886;52.146;20.718;2024-03-02T03:28:30;100180;;;7.4;76.2
85812;BME280;76886;52.146;20.718;2024-03-02T03:29:30;100190;;;7.1;77.5
85812;BME280;76886;52.146;20.718;2024-03-02T03:30:30;100190;;;6.9;78.5
85812;BME280;76886;52.146;20.718;2024-03-02T03:31:30;100190;;;6.7;79.8
85812;BME280;76886;52.146;20.718;2024-03-02T03:32:30;100180;;;6.7;79.9
85812;BME280;76886;52.146;20.718;2024-03-02T03:33:30;100180;;;6.6;80.5
85812;BME280;76886;52.146;20.718;2024-03-02T03:34:32;100180;;;6.8;79.8
85812;BME280;76886;52.146;20.718;2024-03-02T03:35:30;100180;;;6.8;79.3
85812;BME280;76886;52.146;20.718;2024-03-02T03:36:30;100180;;;6.8;79.2
85812;BME280;76886;52.146;20.718;2024-03-02T03:37:30;100190;;;6.7;80.0
85812;BME280;76886;52.146;20.718;2024-03-02T03:38:30;100190;;;6.6;80.3
85812;BME280;76886;52.146;20.718;2024-03-02T03:39:30;100180;;;6.7;80.1
85812;BME280;76886;52.146;20.718;2024-03-02T03:40:30;100190;;;6.7;80.1
85812;BME280;76886;52.146;20.718;2024-03-02T03:41:30;100180;;;7.0;79.2
85812;BME280;76886;52.146;20.718;2024-03-02T03:42:30;100180;;;6.7;79.3
85812;BME280;76886;52.146;20.718;2024-03-02T03:43:30;100180;;;6.8;79.4
85812;BME280;76886;52.146;20.718;2024-03-02T03:44:30;100180;;;6.8;79.2
85812;BME280;76886;52.146;20.718;2024-03-02T03:45:30;100180;;;6.6;79.9
85812;BME280;76886;52.146;20.718;2024-03-02T03:46:30;100190;;;6.6;80.2
85812;BME280;76886;52.146;20.718;2024-03-02T03:47:31;100180;;;6.5;80.5
85812;BME280;76886;52.146;20.718;2024-03-02T03:48:30;100180;;;6.5;80.8
85812;BME280;76886;52.146;20.718;2024-03-02T03:49:30;100180;;;6.3;81.3
85812;BME280;76886;52.146;20.718;2024-03-02T03:50:30;100180;;;6.2;82.1
85812;BME280;76886;52.146;20.718;2024-03-02T03:51:30;100180;;;6.2;82.0
85812;BME280;76886;52.146;20.718;2024-03-02T03:52:30;100180;;;6.2;81.7
85812;BME280;76886;52.146;20.718;2024-03-02T03:53:30;100180;;;6.3;81.5
85812;BME280;76886;52.146;20.718;2024-03-02T03:54:30;100180;;;6.2;81.5
85812;BME280;76886;52.146;20.718;2024-03-02T03:55:30;100170;;;6.2;81.9
85812;BME280;76886;52.146;20.718;2024-03-02T03:56:30;100180;;;6.4;81.3
85812;BME280;76886;52.146;20.718;2024-03-02T03:57:30;100170;;;6.5;80.8
85812;BME280;76886;52.146;20.718;2024-03-02T03:58:30;100170;;;6.6;80.0
85812;BME280;76886;52.146;20.718;2024-03-02T03:59:30;100170;;;6.4;80.8
85812;BME280;76886;52.146;20.718;2024-03-02T04:00:30;100180;;;6.4;81.2
85812;BME280;76886;52.146;20.718;2024-03-02T04:01:30;100180;;;6.5;80.6
85812;BME280;76886;52.146;20.718;2024-03-02T04:02:30;100180;;;6.6;80.3
85812;BME280;76886;52.146;20.718;2024-03-02T04:03:30;100180;;;6.6;80.0
85812;BME280;76886;52.146;20.718;2024-03-02T04:04:30;100180;;;6.4;80.7
85812;BME280;76886;52.146;20.718;2024-03-02T04:05:30;100180;;;6.6;80.1
85812;BME280;76886;52.146;20.718;2024-03-02T04:06:30;100180;;;6.8;79.5
85812;BME280;76886;52.146;20.718;2024-03-02T04:07:30;100180;;;6.9;79.0
85812;BME280;76886;52.146;20.718;2024-03-02T04:08:30;100180;;;6.7;79.6
85812;BME280;76886;52.146;20.718;2024-03-02T04:09:30;100190;;;6.7;79.9
85812;BME280;76886;52.146;20.718;2024-03-02T04:10:30;100190;;;6.4;80.8
85812;BME280;76886;52.146;20.718;2024-03-02T04:11:30;100190;;;6.3;81.5
85812;BME280;76886;52.146;20.718;2024-03-02T04:12:30;100180;;;6.3;81.6
85812;BME280;76886;52.146;20.718;2024-03-02T04:13:30;100180;;;6.5;81.1
85812;BME280;76886;52.146;20.718;2024-03-02T04:14:30;100180;;;6.5;80.8
85812;BME280;76886;52.146;20.718;2024-03-02T04:15:30;100180;;;6.4;80.8
85812;BME280;76886;52.146;20.718;2024-03-02T04:16:30;100180;;;6.4;81.3
85812;BME280;76886;52.146;20.718;2024-03-02T04:17:31;100180;;;6.3;81.0
85812;BME280;76886;52.146;20.718;2024-03-02T04:18:30;100190;;;6.3;81.4
85812;BME280;76886;52.146;20.718;2024-03-02T04:19:30;100190;;;6.3;81.4
85812;BME280;76886;52.146;20.718;2024-03-02T04:20:30;100180;;;6.3;81.5
85812;BME280;76886;52.146;20.718;2024-03-02T04:21:30;100180;;;6.2;81.7
85812;BME280;76886;52.146;20.718;2024-03-02T04:22:30;100180;;;6.3;81.6
85812;BME280;76886;52.146;20.718;2024-03-02T04:23:30;100180;;;6.4;81.2
85812;BME280;76886;52.146;20.718;2024-03-02T04:24:30;100180;;;6.5;80.4
85812;BME280;76886;52.146;20.718;2024-03-02T04:25:30;100190;;;6.7;79.9
85812;BME280;76886;52.146;20.718;2024-03-02T04:26:30;100190;;;6.8;79.8
85812;BME280;76886;52.146;20.718;2024-03-02T04:27:30;100190;;;6.6;79.7
85812;BME280;76886;52.146;20.718;2024-03-02T04:28:30;100190;;;6.6;79.9
85812;BME280;76886;52.146;20.718;2024-03-02T04:29:30;100190;;;6.6;80.2
85812;BME280;76886;52.146;20.718;2024-03-02T04:30:30;100190;;;6.7;79.6
85812;BME280;76886;52.146;20.718;2024-03-02T04:31:30;100190;;;6.4;80.7
85812;BME280;76886;52.146;20.718;2024-03-02T04:32:30;100190;;;6.3;80.7
85812;BME280;76886;52.146;20.718;2024-03-02T04:33:30;100190;;;6.3;80.8
85812;BME280;76886;52.146;20.718;2024-03-02T04:34:30;100180;;;6.4;80.6
85812;BME280;76886;52.146;20.718;2024-03-02T04:35:30;100180;;;6.5;80.0
85812;BME280;76886;52.146;20.718;2024-03-02T04:36:30;100180;;;6.5;79.8
85812;BME280;76886;52.146;20.718;2024-03-02T04:37:30;100180;;;6.2;80.8
85812;BME280;76886;52.146;20.718;2024-03-02T04:38:30;100180;;;6.2;81.1
85812;BME280;76886;52.146;20.718;2024-03-02T04:39:30;100190;;;6.3;81.0
85812;BME280;76886;52.146;20.718;2024-03-02T04:40:30;100190;;;6.2;80.9
85812;BME280;76886;52.146;20.718;2024-03-02T04:41:30;100190;;;6.2;81.2
85812;BME280;76886;52.146;20.718;2024-03-02T04:42:30;100190;;;6.3;80.5
85812;BME280;76886;52.146;20.718;2024-03-02T04:43:30;100180;;;6.4;80.2
85812;BME280;76886;52.146;20.718;2024-03-02T04:44:30;100190;;;6.1;81.2
85812;BME280;76886;52.146;20.718;2024-03-02T04:45:30;100190;;;6.1;81.4
85812;BME280;76886;52.146;20.718;2024-03-02T04:46:31;100190;;;6.0;82.0
85812;BME280;76886;52.146;20.718;2024-03-02T04:47:30;100190;;;6.0;82.1
85812;BME280;76886;52.146;20.718;2024-03-02T04:48:30;100190;;;5.9;82.3
85812;BME280;76886;52.146;20.718;2024-03-02T04:49:30;100180;;;5.8;82.8
85812;BME280;76886;52.146;20.718;2024-03-02T04:50:30;100180;;;5.8;82.9
85812;BME280;76886;52.146;20.718;2024-03-02T04:51:30;100190;;;6.0;82.6
85812;BME280;76886;52.146;20.718;2024-03-02T04:52:30;100190;;;5.9;82.5
85812;BME280;76886;52.146;20.718;2024-03-02T04:53:30;100190;;;6.0;82.5
85812;BME280;76886;52.146;20.718;2024-03-02T04:54:30;100190;;;5.9;82.5
85812;BME280;76886;52.146;20.718;2024-03-02T04:55:30;100190;;;6.0;82.3
85812;BME280;76886;52.146;20.718;2024-03-02T04:56:30;100190;;;6.2;81.3
85812;BME280;76886;52.146;20.718;2024-03-02T04:57:30;100190;;;6.2;81.3
85812;BME280;76886;52.146;20.718;2024-03-02T04:58:30;100190;;;6.1;81.4
85812;BME280;76886;52.146;20.718;2024-03-02T04:59:30;100190;;;6.0;81.6
85812;BME280;76886;52.146;20.718;2024-03-02T05:00:30;100190;;;6.0;81.9
85812;BME280;76886;52.146;20.718;2024-03-02T05:01:30;100190;;;6.3;81.2
85812;BME280;76886;52.146;20.718;2024-03-02T05:02:30;100190;;;6.2;81.0
85812;BME280;76886;52.146;20.718;2024-03-02T05:03:30;100200;;;6.1;81.5
85812;BME280;76886;52.146;20.718;2024-03-02T05:04:30;100200;;;6.2;81.3
85812;BME280;76886;52.146;20.718;2024-03-02T05:05:30;100190;;;6.4;80.5
85812;BME280;76886;52.146;20.718;2024-03-02T05:06:30;100190;;;6.3;80.6
85812;BME280;76886;52.146;20.718;2024-03-02T05:07:30;100190;;;6.5;79.9
85812;BME280;76886;52.146;20.718;2024-03-02T05:08:30;100190;;;6.5;80.0
85812;BME280;76886;52.146;20.718;2024-03-02T05:09:30;100200;;;6.4;79.6
85812;BME280;76886;52.146;20.718;2024-03-02T05:10:30;100190;;;6.3;80.6
85812;BME280;76886;52.146;20.718;2024-03-02T05:11:30;100200;;;6.2;80.8
85812;BME280;76886;52.146;20.718;2024-03-02T05:12:30;100200;;;6.2;80.8
85812;BME280;76886;52.146;20.718;2024-03-02T05:13:30;100200;;;6.3;80.2
85812;BME280;76886;52.146;20.718;2024-03-02T05:14:30;100200;;;6.2;80.9
85812;BME280;76886;52.146;20.718;2024-03-02T05:15:30;100200;;;6.1;81.1
85812;BME280;76886;52.146;20.718;2024-03-02T05:16:33;100200;;;6.2;81.0
85812;BME280;76886;52.146;20.718;2024-03-02T05:17:30;100200;;;6.1;81.0
85812;BME280;76886;52.146;20.718;2024-03-02T05:18:30;100210;;;6.0;81.6
85812;BME280;76886;52.146;20.718;2024-03-02T05:19:30;100210;;;6.0;81.9
85812;BME280;76886;52.146;20.718;2024-03-02T05:20:30;100210;;;6.2;81.3
85812;BME280;76886;52.146;20.718;2024-03-02T05:21:30;100200;;;6.4;80.2
85812;BME280;76886;52.146;20.718;2024-03-02T05:22:30;100210;;;6.2;80.3
85812;BME280;76886;52.146;20.718;2024-03-02T05:23:30;100210;;;6.2;80.9
85812;BME280;76886;52.146;20.718;2024-03-02T05:24:30;100210;;;6.2;80.9
85812;BME280;76886;52.146;20.718;2024-03-02T05:25:30;100210;;;6.3;80.2
85812;BME280;76886;52.146;20.718;2024-03-02T05:26:30;100210;;;6.3;80.2
85812;BME280;76886;52.146;20.718;2024-03-02T05:27:30;100210;;;6.4;79.8
85812;BME280;76886;52.146;20.718;2024-03-02T05:28:30;100210;;;6.2;80.6
85812;BME280;76886;52.146;20.718;2024-03-02T05:29:30;100220;;;6.1;81.1
85812;BME280;76886;52.146;20.718;2024-03-02T05:30:30;100220;;;6.1;81.2
85812;BME280;76886;52.146;20.718;2024-03-02T05:31:30;100210;;;5.9;82.4
85812;BME280;76886;52.146;20.718;2024-03-02T05:32:30;100220;;;6.0;82.0
85812;BME280;76886;52.146;20.718;2024-03-02T05:33:30;100220;;;6.0;81.8
85812;BME280;76886;52.146;20.718;2024-03-02T05:34:30;100220;;;5.9;82.3
85812;BME280;76886;52.146;20.718;2024-03-02T05:35:30;100220;;;6.1;81.6
85812;BME280;76886;52.146;20.718;2024-03-02T05:36:30;100210;;;6.3;80.6
85812;BME280;76886;52.146;20.718;2024-03-02T05:37:30;100220;;;6.2;81.0